createdAt,value
2023-05-14T00:01:19.582Z,85.80
2023-05-14T00:03:47.200Z,85.70
2023-05-14T00:06:15.303Z,85.80
2023-05-14T00:08:42.761Z,86.10
2023-05-14T00:11:10.243Z,86.40
2023-05-14T00:13:37.717Z,87.00
2023-05-14T00:16:05.340Z,87.90
2023-05-14T00:18:32.976Z,88.10
2023-05-14T00:21:00.218Z,88.70
2023-05-14T00:23:27.602Z,89.10
2023-05-14T00:25:54.940Z,89.60
2023-05-14T00:28:22.419Z,89.70
2023-05-14T00:30:49.656Z,90.20
2023-05-14T00:33:16.814Z,90.50
2023-05-14T00:35:44.070Z,91.70
2023-05-14T00:38:17.087Z,92.70
2023-05-14T00:40:46.056Z,94.00
2023-05-14T00:43:13.307Z,94.50
2023-05-14T00:45:40.836Z,94.50
2023-05-14T00:48:08.560Z,93.90
2023-05-14T00:50:36.051Z,93.00
2023-05-14T00:53:04.280Z,92.70
2023-05-14T00:55:32.030Z,92.30
2023-05-14T00:57:59.964Z,91.70
2023-05-14T01:00:27.193Z,91.40
2023-05-14T01:02:54.757Z,91.50
2023-05-14T01:05:25.211Z,91.60
2023-05-14T01:07:59.668Z,91.20
2023-05-14T01:10:39.171Z,91.20
2023-05-14T01:13:26.861Z,91.30
2023-05-14T01:15:58.316Z,91.60
2023-05-14T01:18:28.344Z,91.40
2023-05-14T01:20:55.808Z,91.60
2023-05-14T01:23:23.199Z,91.80
2023-05-14T01:25:50.630Z,91.80
2023-05-14T01:28:28.948Z,92.00
2023-05-14T01:31:16.754Z,92.00
2023-05-14T01:33:44.986Z,91.80
2023-05-14T01:36:13.196Z,91.70
2023-05-14T01:38:45.819Z,91.40
2023-05-14T01:41:15.816Z,91.10
2023-05-14T01:43:43.964Z,90.90
2023-05-14T01:46:11.249Z,91.00
2023-05-14T01:48:38.457Z,91.00
2023-05-14T01:51:06.947Z,91.00
2023-05-14T01:53:35.084Z,91.00
2023-05-14T01:56:02.544Z,91.00
2023-05-14T01:58:29.768Z,91.10
2023-05-14T02:00:57.212Z,90.50
2023-05-14T02:03:24.406Z,90.30
2023-05-14T02:05:52.088Z,89.80
2023-05-14T02:08:19.318Z,89.60
2023-05-14T02:10:46.598Z,89.50
2023-05-14T02:13:13.774Z,89.50
2023-05-14T02:15:41.122Z,88.90
2023-05-14T02:18:08.521Z,88.40
2023-05-14T02:20:36.317Z,88.40
2023-05-14T02:23:03.677Z,88.30
2023-05-14T02:25:30.887Z,87.80
2023-05-14T02:27:58.317Z,87.90
2023-05-14T02:30:25.761Z,88.00
2023-05-14T02:32:53.288Z,87.50
2023-05-14T02:35:21.241Z,87.40
2023-05-14T02:37:48.806Z,87.40
2023-05-14T02:40:16.338Z,87.30
2023-05-14T02:42:43.487Z,87.30
2023-05-14T02:45:10.926Z,87.20
2023-05-14T02:47:38.475Z,87.00
2023-05-14T02:50:06.626Z,86.90
2023-05-14T02:52:34.157Z,87.00
2023-05-14T02:55:03.003Z,86.80
2023-05-14T02:57:30.320Z,86.80
2023-05-14T02:59:57.676Z,86.70
2023-05-14T03:02:25.596Z,86.50
2023-05-14T03:04:53.308Z,86.30
2023-05-14T03:07:20.664Z,86.30
2023-05-14T03:09:47.893Z,86.30
2023-05-14T03:12:15.281Z,86.40
2023-05-14T03:14:42.547Z,86.40
2023-05-14T03:17:10.115Z,86.40
2023-05-14T03:19:37.322Z,86.40
2023-05-14T03:22:05.031Z,86.30
2023-05-14T03:24:32.197Z,86.50
2023-05-14T03:26:59.457Z,86.50
2023-05-14T03:29:26.569Z,86.70
2023-05-14T03:31:54.676Z,86.60
2023-05-14T03:34:22.100Z,86.80
2023-05-14T03:36:49.716Z,86.90
2023-05-14T03:39:19.866Z,87.10
2023-05-14T03:41:47.848Z,87.20
2023-05-14T03:44:17.032Z,87.40
2023-05-14T03:46:44.825Z,87.50
2023-05-14T03:49:12.149Z,88.00
2023-05-14T03:51:39.408Z,87.80
2023-05-14T03:54:07.480Z,88.40
2023-05-14T03:56:34.826Z,88.50
2023-05-14T03:59:03.305Z,88.70
2023-05-14T04:01:32.532Z,88.80
2023-05-14T04:03:59.917Z,88.70
2023-05-14T04:06:27.592Z,88.40
2023-05-14T04:08:55.406Z,88.40
2023-05-14T04:11:22.831Z,88.10
2023-05-14T04:13:50.208Z,88.00
2023-05-14T04:16:17.444Z,87.80
2023-05-14T04:18:44.984Z,87.70
2023-05-14T04:21:12.691Z,87.80
2023-05-14T04:23:40.786Z,88.00
2023-05-14T04:26:08.032Z,87.90
2023-05-14T04:28:35.191Z,88.10
2023-05-14T04:31:02.346Z,87.80
2023-05-14T04:33:32.072Z,87.70
2023-05-14T04:35:59.344Z,86.90
2023-05-14T04:38:26.846Z,86.60
2023-05-14T04:40:54.013Z,86.20
2023-05-14T04:43:21.308Z,85.60
2023-05-14T04:45:48.423Z,85.30
2023-05-14T04:48:15.796Z,85.20
2023-05-14T04:50:44.388Z,85.30
2023-05-14T04:53:11.781Z,85.70
2023-05-14T04:55:39.273Z,86.00
2023-05-14T04:58:06.534Z,85.20
2023-05-14T05:00:34.476Z,84.80
2023-05-14T05:03:01.897Z,84.90
2023-05-14T05:05:29.425Z,85.00
2023-05-14T05:07:56.645Z,85.20
2023-05-14T05:10:24.249Z,85.20
2023-05-14T05:12:52.349Z,84.70
2023-05-14T05:15:19.798Z,84.00
2023-05-14T05:17:47.147Z,83.70
2023-05-14T05:20:14.774Z,83.70
2023-05-14T05:22:42.092Z,83.50
2023-05-14T05:25:09.575Z,83.00
2023-05-14T05:27:36.865Z,82.30
2023-05-14T05:30:04.392Z,82.60
2023-05-14T05:32:31.840Z,82.40
2023-05-14T05:34:59.100Z,81.80
2023-05-14T05:37:26.364Z,81.50
2023-05-14T05:39:54.107Z,81.10
2023-05-14T05:42:21.314Z,81.20
2023-05-14T05:44:48.475Z,81.00
2023-05-14T05:47:16.105Z,81.00
2023-05-14T05:49:43.298Z,80.70
2023-05-14T05:52:10.626Z,80.00
2023-05-14T05:54:39.904Z,79.70
2023-05-14T05:57:07.192Z,78.20
2023-05-14T05:59:34.455Z,76.90
2023-05-14T06:02:01.822Z,76.00
2023-05-14T06:04:29.023Z,75.10
2023-05-14T06:06:56.235Z,73.50
2023-05-14T06:09:23.421Z,72.60
2023-05-14T06:11:50.828Z,72.00
2023-05-14T06:14:18.069Z,72.30
2023-05-14T06:16:45.460Z,71.90
2023-05-14T06:19:12.787Z,72.70
2023-05-14T06:21:40.257Z,72.80
2023-05-14T06:24:07.635Z,72.40
2023-05-14T06:26:34.866Z,73.00
2023-05-14T06:29:02.192Z,72.90
2023-05-14T06:31:29.329Z,72.30
2023-05-14T06:33:56.552Z,72.10
2023-05-14T06:36:23.925Z,71.80
2023-05-14T06:38:51.083Z,72.30
2023-05-14T06:41:18.285Z,73.70
2023-05-14T06:43:45.581Z,75.70
2023-05-14T06:46:12.743Z,77.10
2023-05-14T06:48:40.086Z,77.80
2023-05-14T06:51:07.321Z,77.90
2023-05-14T06:53:35.260Z,77.50
2023-05-14T06:56:02.438Z,76.80
2023-05-14T06:58:29.704Z,75.90
2023-05-14T07:00:57.046Z,75.80
2023-05-14T07:03:24.364Z,75.60
2023-05-14T07:05:52.024Z,76.00
2023-05-14T07:08:19.176Z,75.70
2023-05-14T07:10:46.406Z,76.40
2023-05-14T07:13:13.716Z,77.10
2023-05-14T07:15:40.999Z,76.80
2023-05-14T07:18:08.205Z,77.20
2023-05-14T07:20:35.609Z,78.10
2023-05-14T07:23:02.922Z,78.70
2023-05-14T07:25:30.176Z,79.00
2023-05-14T07:27:57.409Z,79.50
2023-05-14T07:30:25.170Z,79.60
2023-05-14T07:32:52.571Z,80.50
2023-05-14T07:35:19.902Z,81.00
2023-05-14T07:37:47.422Z,81.00
2023-05-14T07:40:14.732Z,81.00
2023-05-14T07:42:42.149Z,81.10
2023-05-14T07:45:10.043Z,81.80
2023-05-14T07:47:37.389Z,81.30
2023-05-14T07:50:05.008Z,80.00
2023-05-14T07:52:32.176Z,78.90
2023-05-14T07:55:00.143Z,78.20
2023-05-14T07:57:27.716Z,76.40
2023-05-14T07:59:55.102Z,75.70
2023-05-14T08:02:22.430Z,75.80
2023-05-14T08:04:49.820Z,75.10
2023-05-14T08:07:17.490Z,75.80
2023-05-14T08:09:44.897Z,76.50
2023-05-14T08:12:12.159Z,76.30
2023-05-14T08:14:39.357Z,76.30
2023-05-14T08:17:06.835Z,76.80
2023-05-14T08:19:34.206Z,77.80
2023-05-14T08:22:01.394Z,79.30
2023-05-14T08:24:28.729Z,79.20
2023-05-14T08:26:56.227Z,79.50
2023-05-14T08:29:23.498Z,79.50
2023-05-14T08:31:51.491Z,82.10
2023-05-14T08:34:18.748Z,81.60
2023-05-14T08:36:46.005Z,82.40
2023-05-14T08:39:13.836Z,83.10
2023-05-14T08:41:41.565Z,83.80
2023-05-14T08:44:33.285Z,82.40
2023-05-14T08:47:00.846Z,82.40
2023-05-14T08:49:40.963Z,83.40
2023-05-14T08:52:09.831Z,83.70
2023-05-14T08:54:37.105Z,81.90
2023-05-14T08:57:05.154Z,82.40
2023-05-14T08:59:32.476Z,80.70
2023-05-14T09:02:02.680Z,79.00
2023-05-14T09:04:31.576Z,77.40
2023-05-14T09:07:01.864Z,76.60
2023-05-14T09:09:29.161Z,78.10
2023-05-14T09:11:56.599Z,77.70
2023-05-14T09:14:24.300Z,76.60
2023-05-14T09:16:52.816Z,74.60
2023-05-14T09:19:21.903Z,76.50
2023-05-14T09:21:50.012Z,77.70
2023-05-14T09:24:22.833Z,78.50
2023-05-14T09:26:52.299Z,78.40
2023-05-14T09:29:20.060Z,78.90
2023-05-14T09:31:51.948Z,80.20
2023-05-14T09:34:25.592Z,80.80
2023-05-14T09:36:59.014Z,81.50
2023-05-14T09:39:27.127Z,82.30
2023-05-14T09:41:54.887Z,82.00
2023-05-14T09:44:23.330Z,82.30
2023-05-14T09:46:52.092Z,82.80
2023-05-14T09:49:19.816Z,86.30
2023-05-14T09:51:47.510Z,86.70
2023-05-14T09:54:14.674Z,87.70
2023-05-14T09:56:43.321Z,88.00
2023-05-14T09:59:10.714Z,86.40
2023-05-14T10:01:39.090Z,87.80
2023-05-14T10:04:08.035Z,84.10
2023-05-14T10:06:39.306Z,84.20
2023-05-14T10:09:13.125Z,82.50
2023-05-14T10:11:44.286Z,80.70
2023-05-14T10:14:18.819Z,80.90
2023-05-14T10:16:51.599Z,80.60
2023-05-14T10:19:21.594Z,80.20
2023-05-14T10:21:55.951Z,81.00
2023-05-14T10:24:24.708Z,81.60
2023-05-14T10:26:52.705Z,81.00
2023-05-14T10:29:19.957Z,81.80
2023-05-14T10:31:48.311Z,81.80
2023-05-14T10:34:33.804Z,82.40
2023-05-14T10:37:10.176Z,82.80
2023-05-14T10:39:47.924Z,82.50
2023-05-14T10:42:32.810Z,82.60
2023-05-14T10:45:08.330Z,82.70
2023-05-14T10:47:40.961Z,83.40
2023-05-14T10:50:11.052Z,83.40
2023-05-14T10:52:38.494Z,83.70
2023-05-14T10:55:10.984Z,84.50
2023-05-14T10:57:40.008Z,84.00
2023-05-14T11:00:09.107Z,84.70
2023-05-14T11:02:38.919Z,85.60
2023-05-14T11:05:11.585Z,85.80
2023-05-14T11:07:49.654Z,85.00
2023-05-14T11:10:19.145Z,85.70
2023-05-14T11:12:51.212Z,87.10
2023-05-14T11:15:23.244Z,87.70
2023-05-14T11:17:51.345Z,87.80
2023-05-14T11:20:19.655Z,89.40
2023-05-14T11:22:49.047Z,89.80
2023-05-14T11:25:17.170Z,91.60
2023-05-14T11:27:47.026Z,92.00
2023-05-14T11:30:19.825Z,93.40
2023-05-14T11:32:48.941Z,94.20
2023-05-14T11:35:16.989Z,92.30
2023-05-14T11:37:50.506Z,90.40
2023-05-14T11:40:18.004Z,90.10
2023-05-14T11:42:46.201Z,89.10
2023-05-14T11:45:14.554Z,87.30
2023-05-14T11:47:43.237Z,88.00
2023-05-14T11:50:11.490Z,88.40
2023-05-14T11:52:41.102Z,87.60
2023-05-14T11:55:13.209Z,88.60
2023-05-14T11:57:41.470Z,89.70
2023-05-14T12:00:13.589Z,90.30
2023-05-14T12:02:41.102Z,90.80
2023-05-14T12:05:09.224Z,90.60
2023-05-14T12:07:36.641Z,90.10
2023-05-14T12:10:05.258Z,89.70
2023-05-14T12:12:37.640Z,89.60
2023-05-14T12:15:14.967Z,90.10
2023-05-14T12:17:43.537Z,91.80
2023-05-14T12:20:12.549Z,92.90
2023-05-14T12:22:42.365Z,93.90
2023-05-14T12:25:16.105Z,95.10
2023-05-14T12:27:45.646Z,94.50
2023-05-14T12:30:21.785Z,95.50
2023-05-14T12:32:53.063Z,95.90
2023-05-14T12:35:22.889Z,97.00
2023-05-14T12:37:50.575Z,96.30
2023-05-14T12:40:17.828Z,96.70
2023-05-14T12:42:45.299Z,97.20
2023-05-14T12:45:12.577Z,97.50
2023-05-14T12:47:40.070Z,95.50
2023-05-14T12:50:07.951Z,95.30
2023-05-14T12:52:39.425Z,95.60
2023-05-14T12:55:09.288Z,96.30
2023-05-14T12:57:39.111Z,95.50
2023-05-14T13:00:08.598Z,95.00
2023-05-14T13:02:42.534Z,94.30
2023-05-14T13:05:12.364Z,95.10
2023-05-14T13:07:39.875Z,96.00
2023-05-14T13:10:08.909Z,97.70
2023-05-14T13:12:36.186Z,97.00
2023-05-14T13:15:03.515Z,97.40
2023-05-14T13:17:31.088Z,97.70
2023-05-14T13:19:58.394Z,98.20
2023-05-14T13:22:25.984Z,98.80
2023-05-14T13:24:59.165Z,97.80
2023-05-14T13:27:30.528Z,98.20
2023-05-14T13:29:58.799Z,97.20
2023-05-14T13:32:27.864Z,96.90
2023-05-14T13:34:55.166Z,96.50
2023-05-14T13:37:22.420Z,97.10
2023-05-14T13:39:51.307Z,96.30
2023-05-14T13:42:18.742Z,94.80
2023-05-14T13:44:46.128Z,95.30
2023-05-14T13:47:13.301Z,95.70
2023-05-14T13:49:40.828Z,96.90
2023-05-14T13:52:08.072Z,97.20
2023-05-14T13:54:35.469Z,97.20
2023-05-14T13:57:02.636Z,96.50
2023-05-14T13:59:30.290Z,96.90
2023-05-14T14:01:57.654Z,95.50
2023-05-14T14:04:29.077Z,96.10
2023-05-14T14:06:56.513Z,95.30
2023-05-14T14:09:24.433Z,93.80
2023-05-14T14:11:51.922Z,92.00
2023-05-14T14:14:19.154Z,92.80
2023-05-14T14:16:46.480Z,93.30
2023-05-14T14:19:14.942Z,93.60
2023-05-14T14:21:43.454Z,93.60
2023-05-14T14:24:10.756Z,94.80
2023-05-14T14:26:38.277Z,95.50
2023-05-14T14:29:05.616Z,95.90
2023-05-14T14:31:32.884Z,94.30
2023-05-14T14:34:00.099Z,92.80
2023-05-14T14:36:27.444Z,93.10
2023-05-14T14:38:54.567Z,92.60
2023-05-14T14:41:22.464Z,92.10
2023-05-14T14:43:49.994Z,91.10
2023-05-14T14:46:17.378Z,91.20
2023-05-14T14:48:44.646Z,91.40
2023-05-14T14:51:12.117Z,92.80
2023-05-14T14:53:40.491Z,93.20
2023-05-14T14:56:07.877Z,91.90
2023-05-14T14:58:35.125Z,90.20
2023-05-14T15:01:02.477Z,89.30
2023-05-14T15:03:30.079Z,89.60
2023-05-14T15:05:57.438Z,89.10
2023-05-14T15:08:30.312Z,88.20
2023-05-14T15:10:58.261Z,88.40
2023-05-14T15:13:27.093Z,88.70
2023-05-14T15:15:54.437Z,88.90
2023-05-14T15:18:24.669Z,90.10
2023-05-14T15:20:53.272Z,90.10
2023-05-14T15:23:20.509Z,90.40
2023-05-14T15:25:49.258Z,90.70
2023-05-14T15:28:16.575Z,91.20
2023-05-14T15:30:44.142Z,90.90
2023-05-14T15:33:11.656Z,92.10
2023-05-14T15:35:39.384Z,92.40
2023-05-14T15:38:07.375Z,92.50
2023-05-14T15:40:35.362Z,92.30
2023-05-14T15:43:02.665Z,91.30
2023-05-14T15:45:29.961Z,91.30
2023-05-14T15:47:57.117Z,90.30
2023-05-14T15:50:26.016Z,89.70
2023-05-14T15:52:53.896Z,87.90
2023-05-14T15:55:21.188Z,86.20
2023-05-14T15:57:48.468Z,85.30
2023-05-14T16:00:16.658Z,84.00
2023-05-14T16:02:44.031Z,84.30
2023-05-14T16:05:11.279Z,82.80
2023-05-14T16:07:38.883Z,83.30
2023-05-14T16:10:06.966Z,83.30
2023-05-14T16:12:34.616Z,82.70
2023-05-14T16:15:01.869Z,81.70
2023-05-14T16:17:30.572Z,82.20
2023-05-14T16:20:02.023Z,80.90
2023-05-14T16:22:36.266Z,82.60
2023-05-14T16:25:04.878Z,82.80
2023-05-14T16:27:32.186Z,83.40
2023-05-14T16:29:59.413Z,83.40
2023-05-14T16:32:27.841Z,83.30
2023-05-14T16:34:56.545Z,83.50
2023-05-14T16:37:23.928Z,83.40
2023-05-14T16:39:51.306Z,84.70
2023-05-14T16:42:18.508Z,85.60
2023-05-14T16:44:45.685Z,86.90
2023-05-14T16:47:13.112Z,88.30
2023-05-14T16:49:40.311Z,88.70
2023-05-14T16:52:08.400Z,89.30
2023-05-14T16:54:35.744Z,89.60
2023-05-14T16:57:03.080Z,89.90
2023-05-14T16:59:30.213Z,90.30
2023-05-14T17:01:57.486Z,90.00
2023-05-14T17:04:26.714Z,90.70
2023-05-14T17:06:55.025Z,91.80
2023-05-14T17:09:22.271Z,92.50
2023-05-14T17:11:49.499Z,92.70
2023-05-14T17:14:16.710Z,93.00
2023-05-14T17:16:43.827Z,93.00
2023-05-14T17:19:11.217Z,93.70
2023-05-14T17:21:38.360Z,94.00
2023-05-14T17:24:05.917Z,93.60
2023-05-14T17:26:33.116Z,92.80
2023-05-14T17:29:00.607Z,92.60
2023-05-14T17:31:27.763Z,92.60
2023-05-14T17:33:55.063Z,92.60
2023-05-14T17:36:22.300Z,92.90
2023-05-14T17:38:49.593Z,93.20
2023-05-14T17:41:16.703Z,93.20
2023-05-14T17:43:43.960Z,93.70
2023-05-14T17:46:11.087Z,94.00
2023-05-14T17:48:38.286Z,94.80
2023-05-14T17:51:05.746Z,95.80
2023-05-14T17:53:33.040Z,96.60
2023-05-14T17:56:00.288Z,97.20
2023-05-14T17:58:27.693Z,98.10
2023-05-14T18:00:54.925Z,99.10
2023-05-14T18:03:22.382Z,99.70
2023-05-14T18:05:50.636Z,99.90
2023-05-14T18:08:17.797Z,99.90
2023-05-14T18:10:44.943Z,99.90
2023-05-14T18:13:12.159Z,99.90
2023-05-14T18:15:39.651Z,99.90
2023-05-14T18:18:06.983Z,99.90
2023-05-14T18:20:35.602Z,99.90
2023-05-14T18:23:03.333Z,99.90
2023-05-14T18:25:30.648Z,99.90
2023-05-14T18:27:57.877Z,99.90
2023-05-14T18:30:25.124Z,99.90
2023-05-14T18:32:52.301Z,99.90
2023-05-14T18:35:19.518Z,99.90
2023-05-14T18:37:46.724Z,99.90
2023-05-14T18:40:18.629Z,99.90
2023-05-14T18:42:46.176Z,99.90
2023-05-14T18:45:13.373Z,99.90
2023-05-14T18:47:41.031Z,99.90
2023-05-14T18:50:08.781Z,99.90
2023-05-14T18:52:36.007Z,99.90
2023-05-14T18:55:03.177Z,99.90
2023-05-14T18:57:32.326Z,99.90
2023-05-14T19:00:03.955Z,99.90
2023-05-14T19:02:31.338Z,99.90
2023-05-14T19:04:58.551Z,99.90
2023-05-14T19:07:27.406Z,99.90
2023-05-14T19:09:54.559Z,99.90
2023-05-14T19:12:21.892Z,99.90
2023-05-14T19:14:49.013Z,99.90
2023-05-14T19:17:18.314Z,99.90
2023-05-14T19:19:46.421Z,99.90
2023-05-14T19:22:13.602Z,99.90
2023-05-14T19:24:41.132Z,99.90
2023-05-14T19:27:09.093Z,99.90
2023-05-14T19:29:39.416Z,99.90
2023-05-14T19:32:07.229Z,99.90
2023-05-14T19:34:34.514Z,99.90
2023-05-14T19:37:02.023Z,99.90
2023-05-14T19:39:29.265Z,99.90
2023-05-14T19:41:56.454Z,99.90
2023-05-14T19:44:23.625Z,99.90
2023-05-14T19:46:51.104Z,99.90
2023-05-14T19:49:18.271Z,99.90
2023-05-14T19:51:45.532Z,99.90
2023-05-14T19:54:12.792Z,99.90
2023-05-14T19:56:40.147Z,99.90
2023-05-14T19:59:07.316Z,99.90
2023-05-14T20:01:34.962Z,99.90
2023-05-14T20:04:02.505Z,99.90
2023-05-14T20:06:29.787Z,99.90
2023-05-14T20:08:56.979Z,99.90
2023-05-14T20:11:24.180Z,99.90
2023-05-14T20:13:51.532Z,99.90
2023-05-14T20:16:19.008Z,99.90
2023-05-14T20:18:46.209Z,99.90
2023-05-14T20:21:13.565Z,99.90
2023-05-14T20:23:41.342Z,99.90
2023-05-14T20:26:08.628Z,99.90
2023-05-14T20:28:35.876Z,99.90
2023-05-14T20:31:04.188Z,99.90
2023-05-14T20:33:31.543Z,99.90
2023-05-14T20:35:59.077Z,99.90
2023-05-14T20:38:29.527Z,99.90
2023-05-14T20:40:57.287Z,99.90
2023-05-14T20:43:24.477Z,99.90
2023-05-14T20:45:52.886Z,99.90
2023-05-14T20:48:21.941Z,99.90
2023-05-14T20:50:50.518Z,99.90
2023-05-14T20:53:17.808Z,99.90
2023-05-14T20:55:45.414Z,99.90
2023-05-14T20:58:15.626Z,99.90
2023-05-14T21:00:44.137Z,99.90
2023-05-14T21:03:11.453Z,99.90
2023-05-14T21:05:41.600Z,99.90
2023-05-14T21:08:08.875Z,99.90
2023-05-14T21:10:36.223Z,99.90
2023-05-14T21:13:03.772Z,99.90
2023-05-14T21:15:31.265Z,99.90
2023-05-14T21:17:58.715Z,99.90
2023-05-14T21:20:25.954Z,99.90
2023-05-14T21:22:53.184Z,99.90
2023-05-14T21:25:20.637Z,99.90
2023-05-14T21:27:47.872Z,99.90
2023-05-14T21:30:15.525Z,99.90
2023-05-14T21:32:42.879Z,99.90
2023-05-14T21:35:10.799Z,99.90
2023-05-14T21:37:39.878Z,99.90
2023-05-14T21:40:12.611Z,99.90
2023-05-14T21:42:40.833Z,99.90
2023-05-14T21:45:08.533Z,99.90
2023-05-14T21:47:36.194Z,99.90
2023-05-14T21:50:05.685Z,99.90
2023-05-14T21:52:33.696Z,99.90
2023-05-14T21:55:00.960Z,99.90
2023-05-14T21:57:34.282Z,99.90
2023-05-14T22:00:02.702Z,99.90
2023-05-14T22:02:32.425Z,99.90
2023-05-14T22:05:02.453Z,99.90
2023-05-14T22:07:32.074Z,99.90
2023-05-14T22:10:01.764Z,99.90
2023-05-14T22:12:29.463Z,99.90
2023-05-14T22:15:21.043Z,99.90
2023-05-14T22:17:48.986Z,99.90
2023-05-14T22:20:16.514Z,99.90
2023-05-14T22:22:43.937Z,99.90
2023-05-14T22:25:11.515Z,99.90
2023-05-14T22:27:38.893Z,99.90
2023-05-14T22:30:07.126Z,99.90
2023-05-14T22:32:34.553Z,99.90
2023-05-14T22:35:02.208Z,99.90
2023-05-14T22:37:29.708Z,99.90
2023-05-14T22:39:57.108Z,99.90
2023-05-14T22:42:24.605Z,99.90
2023-05-14T22:44:54.765Z,99.90
2023-05-14T22:47:22.603Z,99.90
2023-05-14T22:49:50.344Z,99.90
2023-05-14T22:52:19.634Z,99.90
2023-05-14T22:54:46.979Z,99.90
2023-05-14T22:57:14.369Z,99.90
2023-05-14T22:59:42.095Z,99.90
2023-05-14T23:02:09.550Z,99.90
2023-05-14T23:04:37.090Z,99.90
2023-05-14T23:07:04.730Z,99.90
2023-05-14T23:09:32.017Z,99.90
2023-05-14T23:11:59.391Z,99.90
2023-05-14T23:14:26.705Z,99.90
2023-05-14T23:16:54.135Z,99.90
2023-05-14T23:19:22.179Z,99.90
2023-05-14T23:21:49.798Z,99.90
2023-05-14T23:24:17.079Z,99.90
2023-05-14T23:26:44.567Z,99.90
2023-05-14T23:29:11.936Z,99.90
2023-05-14T23:31:41.281Z,99.90
2023-05-14T23:34:08.655Z,99.90
2023-05-14T23:36:36.390Z,99.90
2023-05-14T23:39:03.812Z,99.90
2023-05-14T23:41:31.815Z,99.90
2023-05-14T23:43:59.180Z,99.90
2023-05-14T23:46:27.975Z,99.90
2023-05-14T23:48:57.278Z,99.90
2023-05-14T23:51:24.972Z,99.90
2023-05-14T23:53:56.513Z,99.90
2023-05-14T23:56:30.410Z,99.90
2023-05-14T23:58:57.848Z,99.90
